createdAt,value
2024-03-26T00:00:28.014Z,657.00
2024-03-26T00:01:28.347Z,659.00
2024-03-26T00:02:28.023Z,651.00
2024-03-26T00:03:28.025Z,651.00
2024-03-26T00:04:28.023Z,653.00
2024-03-26T00:05:28.027Z,651.00
2024-03-26T00:06:28.028Z,644.00
2024-03-26T00:07:28.053Z,654.00
2024-03-26T00:08:28.051Z,648.00
2024-03-26T00:09:28.033Z,637.00
2024-03-26T00:10:28.033Z,639.00
2024-03-26T00:11:28.346Z,635.00
2024-03-26T00:12:28.044Z,638.00
2024-03-26T00:13:28.033Z,643.00
2024-03-26T00:14:28.067Z,648.00
2024-03-26T00:15:28.041Z,646.00
2024-03-26T00:16:28.341Z,653.00
2024-03-26T00:17:28.063Z,646.00
2024-03-26T00:18:28.044Z,645.00
2024-03-26T00:19:28.049Z,640.00
2024-03-26T00:20:28.044Z,639.00
2024-03-26T00:21:28.357Z,645.00
2024-03-26T00:22:28.057Z,647.00
2024-03-26T00:23:28.055Z,643.00
2024-03-26T00:24:28.056Z,649.00
2024-03-26T00:25:28.043Z,640.00
2024-03-26T00:26:28.074Z,636.00
2024-03-26T00:27:28.043Z,636.00
2024-03-26T00:28:28.042Z,639.00
2024-03-26T00:29:28.044Z,632.00
2024-03-26T00:30:28.069Z,632.00
2024-03-26T00:31:28.350Z,633.00
2024-03-26T00:32:28.078Z,639.00
2024-03-26T00:33:28.061Z,639.00
2024-03-26T00:34:28.064Z,639.00
2024-03-26T00:35:28.087Z,639.00
2024-03-26T00:36:28.087Z,639.00
2024-03-26T00:37:28.069Z,638.00
2024-03-26T00:38:28.089Z,635.00
2024-03-26T00:39:28.068Z,636.00
2024-03-26T00:40:28.069Z,639.00
2024-03-26T00:41:28.356Z,648.00
2024-03-26T00:42:28.087Z,645.00
2024-03-26T00:43:28.089Z,656.00
2024-03-26T00:44:28.081Z,649.00
2024-03-26T00:45:28.098Z,650.00
2024-03-26T00:46:28.350Z,650.00
2024-03-26T00:47:28.085Z,650.00
2024-03-26T00:48:28.093Z,655.00
2024-03-26T00:49:28.102Z,656.00
2024-03-26T00:50:28.105Z,660.00
2024-03-26T00:51:28.085Z,664.00
2024-03-26T00:52:28.099Z,660.00
2024-03-26T00:53:28.087Z,657.00
2024-03-26T00:54:28.108Z,654.00
2024-03-26T00:55:28.111Z,668.00
2024-03-26T00:56:28.103Z,668.00
2024-03-26T00:57:28.092Z,664.00
2024-03-26T00:58:28.107Z,664.00
2024-03-26T00:59:28.152Z,667.00
2024-03-26T01:00:28.174Z,671.00
2024-03-26T01:01:28.215Z,673.00
2024-03-26T01:02:28.222Z,674.00
2024-03-26T01:03:28.224Z,692.00
2024-03-26T01:04:28.240Z,707.00
2024-03-26T01:05:28.283Z,707.00
2024-03-26T01:06:28.292Z,703.00
2024-03-26T01:07:28.340Z,699.00
2024-03-26T01:08:28.360Z,712.00
2024-03-26T01:09:28.402Z,704.00
2024-03-26T01:10:28.394Z,700.00
2024-03-26T01:11:28.883Z,692.00
2024-03-26T01:12:28.451Z,704.00
2024-03-26T01:13:28.510Z,693.00
2024-03-26T01:14:28.529Z,701.00
2024-03-26T01:15:28.542Z,696.00
2024-03-26T01:16:28.870Z,694.00
2024-03-26T01:17:28.658Z,714.00
2024-03-26T01:18:28.614Z,720.00
2024-03-26T01:19:28.655Z,718.00
2024-03-26T01:20:28.673Z,730.00
2024-03-26T01:21:28.708Z,740.00
2024-03-26T01:22:28.799Z,725.00
2024-03-26T01:23:28.747Z,733.00
2024-03-26T01:24:28.756Z,736.00
2024-03-26T01:25:28.764Z,738.00
2024-03-26T01:26:28.802Z,740.00
2024-03-26T01:27:28.810Z,738.00
2024-03-26T01:28:28.866Z,731.00
2024-03-26T01:29:28.871Z,732.00
2024-03-26T01:30:28.904Z,744.00
2024-03-26T01:31:29.394Z,750.00
2024-03-26T01:32:28.965Z,757.00
2024-03-26T01:33:28.963Z,749.00
2024-03-26T01:34:28.984Z,749.00
2024-03-26T01:35:29.013Z,742.00
2024-03-26T01:36:29.062Z,727.00
2024-03-26T01:37:29.094Z,747.00
2024-03-26T01:38:29.118Z,754.00
2024-03-26T01:39:29.143Z,763.00
2024-03-26T01:40:29.156Z,763.00
2024-03-26T01:41:29.153Z,780.00
2024-03-26T01:42:29.183Z,759.00
2024-03-26T01:43:29.233Z,758.00
2024-03-26T01:44:29.241Z,764.00
2024-03-26T01:45:29.283Z,763.00
2024-03-26T01:46:29.303Z,758.00
2024-03-26T01:47:29.290Z,759.00
2024-03-26T01:48:29.323Z,767.00
2024-03-26T01:49:29.379Z,767.00
2024-03-26T01:50:29.383Z,775.00
2024-03-26T01:51:29.430Z,788.00
2024-03-26T01:52:30.506Z,774.00
2024-03-26T01:53:29.470Z,792.00
2024-03-26T01:54:29.485Z,781.00
2024-03-26T01:55:29.503Z,798.00
2024-03-26T01:56:29.539Z,791.00
2024-03-26T01:57:29.544Z,794.00
2024-03-26T01:58:29.584Z,781.00
2024-03-26T01:59:29.602Z,783.00
2024-03-26T02:00:29.677Z,796.00
2024-03-26T02:01:29.886Z,790.00
2024-03-26T02:02:29.809Z,777.00
2024-03-26T02:03:29.792Z,783.00
2024-03-26T02:04:29.720Z,799.00
2024-03-26T02:05:29.811Z,795.00
2024-03-26T02:06:29.787Z,796.00
2024-03-26T02:07:29.793Z,796.00
2024-03-26T02:08:29.841Z,785.00
2024-03-26T02:09:29.889Z,790.00
2024-03-26T02:10:29.939Z,794.00
2024-03-26T02:11:29.949Z,804.00
2024-03-26T02:12:29.977Z,801.00
2024-03-26T02:13:29.989Z,793.00
2024-03-26T02:14:30.014Z,804.00
2024-03-26T02:15:30.025Z,791.00
2024-03-26T02:16:30.407Z,798.00
2024-03-26T02:17:30.090Z,785.00
2024-03-26T02:18:30.110Z,792.00
2024-03-26T02:19:30.165Z,790.00
2024-03-26T02:20:30.914Z,807.00
2024-03-26T02:21:30.203Z,813.00
2024-03-26T02:22:30.247Z,790.00
2024-03-26T02:23:30.247Z,788.00
2024-03-26T02:24:30.362Z,796.00
2024-03-26T02:25:30.325Z,785.00
2024-03-26T02:26:30.341Z,780.00
2024-03-26T02:27:30.374Z,780.00
2024-03-26T02:28:30.393Z,788.00
2024-03-26T02:29:30.411Z,775.00
2024-03-26T02:30:30.454Z,789.00
2024-03-26T02:31:30.906Z,783.00
2024-03-26T02:32:30.511Z,762.00
2024-03-26T02:33:30.535Z,778.00
2024-03-26T02:34:30.544Z,779.00
2024-03-26T02:35:30.573Z,755.00
2024-03-26T02:36:30.927Z,775.00
2024-03-26T02:37:30.638Z,781.00
2024-03-26T02:38:30.651Z,769.00
2024-03-26T02:39:30.670Z,766.00
2024-03-26T02:40:30.722Z,772.00
2024-03-26T02:41:30.740Z,761.00
2024-03-26T02:42:30.793Z,774.00
2024-03-26T02:43:30.806Z,773.00
2024-03-26T02:44:30.809Z,770.00
2024-03-26T02:45:30.889Z,775.00
2024-03-26T02:46:30.897Z,778.00
2024-03-26T02:47:30.951Z,757.00
2024-03-26T02:48:30.965Z,768.00
2024-03-26T02:49:31.029Z,762.00
2024-03-26T02:50:31.058Z,772.00
2024-03-26T02:51:31.432Z,766.00
2024-03-26T02:52:31.073Z,780.00
2024-03-26T02:53:31.249Z,772.00
2024-03-26T02:54:31.190Z,769.00
2024-03-26T02:55:31.207Z,772.00
2024-03-26T02:56:31.271Z,777.00
2024-03-26T02:57:31.309Z,774.00
2024-03-26T02:58:31.266Z,778.00
2024-03-26T02:59:31.331Z,786.00
2024-03-26T03:00:31.371Z,793.00
2024-03-26T03:01:31.376Z,789.00
2024-03-26T03:02:31.397Z,799.00
2024-03-26T03:03:31.387Z,785.00
2024-03-26T03:04:31.426Z,784.00
2024-03-26T03:05:31.470Z,782.00
2024-03-26T03:06:31.486Z,783.00
2024-03-26T03:07:31.511Z,781.00
2024-03-26T03:08:31.555Z,783.00
2024-03-26T03:09:31.585Z,780.00
2024-03-26T03:10:31.580Z,768.00
2024-03-26T03:11:31.605Z,781.00
2024-03-26T03:12:31.667Z,772.00
2024-03-26T03:13:31.676Z,775.00
2024-03-26T03:14:31.692Z,765.00
2024-03-26T03:15:31.702Z,762.00
2024-03-26T03:16:31.912Z,764.00
2024-03-26T03:17:31.771Z,760.00
2024-03-26T03:18:31.805Z,757.00
2024-03-26T03:19:31.832Z,756.00
2024-03-26T03:20:31.887Z,770.00
2024-03-26T03:21:31.920Z,773.00
2024-03-26T03:22:31.927Z,770.00
2024-03-26T03:23:31.965Z,760.00
2024-03-26T03:24:31.963Z,768.00
2024-03-26T03:25:31.998Z,773.00
2024-03-26T03:26:32.033Z,763.00
2024-03-26T03:27:32.049Z,770.00
2024-03-26T03:28:32.093Z,756.00
2024-03-26T03:29:32.106Z,747.00
2024-03-26T03:30:32.125Z,754.00
2024-03-26T03:31:32.439Z,760.00
2024-03-26T03:32:32.192Z,750.00
2024-03-26T03:33:32.218Z,754.00
2024-03-26T03:34:32.274Z,750.00
2024-03-26T03:35:32.299Z,752.00
2024-03-26T03:36:32.319Z,760.00
2024-03-26T03:37:32.337Z,757.00
2024-03-26T03:38:32.364Z,751.00
2024-03-26T03:39:32.393Z,735.00
2024-03-26T03:40:32.424Z,744.00
2024-03-26T03:41:32.925Z,745.00
2024-03-26T03:42:32.473Z,743.00
2024-03-26T03:43:32.493Z,733.00
2024-03-26T03:44:32.523Z,722.00
2024-03-26T03:45:32.529Z,719.00
2024-03-26T03:46:32.571Z,710.00
2024-03-26T03:47:32.580Z,728.00
2024-03-26T03:48:32.657Z,740.00
2024-03-26T03:49:32.689Z,728.00
2024-03-26T03:50:32.704Z,721.00
2024-03-26T03:51:32.718Z,730.00
2024-03-26T03:52:32.750Z,718.00
2024-03-26T03:53:32.788Z,719.00
2024-03-26T03:54:32.823Z,728.00
2024-03-26T03:55:32.834Z,715.00
2024-03-26T03:56:32.886Z,731.00
2024-03-26T03:57:32.879Z,724.00
2024-03-26T03:58:32.960Z,735.00
2024-03-26T03:59:32.968Z,723.00
2024-03-26T04:00:32.981Z,741.00
2024-03-26T04:01:33.004Z,736.00
2024-03-26T04:02:33.016Z,742.00
2024-03-26T04:03:33.067Z,748.00
2024-03-26T04:04:33.045Z,738.00
2024-03-26T04:05:33.089Z,745.00
2024-03-26T04:06:33.426Z,740.00
2024-03-26T04:07:33.129Z,745.00
2024-03-26T04:08:33.170Z,734.00
2024-03-26T04:09:33.199Z,727.00
2024-03-26T04:10:33.236Z,736.00
2024-03-26T04:11:33.253Z,750.00
2024-03-26T04:12:33.254Z,731.00
2024-03-26T04:13:33.306Z,728.00
2024-03-26T04:14:33.323Z,724.00
2024-03-26T04:15:33.354Z,730.00
2024-03-26T04:16:33.434Z,732.00
2024-03-26T04:17:33.418Z,736.00
2024-03-26T04:18:35.329Z,734.00
2024-03-26T04:19:33.441Z,724.00
2024-03-26T04:20:33.436Z,724.00
2024-03-26T04:21:33.432Z,734.00
2024-03-26T04:22:33.442Z,736.00
2024-03-26T04:23:33.447Z,722.00
2024-03-26T04:24:33.452Z,726.00
2024-03-26T04:25:33.454Z,733.00
2024-03-26T04:26:33.957Z,735.00
2024-03-26T04:27:33.428Z,705.00
2024-03-26T04:28:33.442Z,716.00
2024-03-26T04:29:33.442Z,715.00
2024-03-26T04:30:33.424Z,718.00
2024-03-26T04:31:33.470Z,719.00
2024-03-26T04:32:33.446Z,714.00
2024-03-26T04:33:40.883Z,600.00
2024-03-26T04:34:40.860Z,600.00
2024-03-26T04:35:40.859Z,600.00
2024-03-26T04:36:41.312Z,600.00
2024-03-26T04:37:40.852Z,600.00
2024-03-26T04:38:40.870Z,605.00
2024-03-26T04:39:40.839Z,607.00
2024-03-26T04:40:40.851Z,604.00
2024-03-26T04:41:40.853Z,605.00
2024-03-26T04:42:40.852Z,608.00
2024-03-26T04:43:40.864Z,604.00
2024-03-26T04:44:40.861Z,605.00
2024-03-26T04:45:40.867Z,605.00
2024-03-26T04:46:40.882Z,610.00
2024-03-26T04:47:40.856Z,608.00
2024-03-26T04:48:40.881Z,604.00
2024-03-26T04:49:40.856Z,610.00
2024-03-26T04:50:40.859Z,604.00
2024-03-26T04:51:40.874Z,602.00
2024-03-26T04:52:40.889Z,609.00
2024-03-26T04:53:40.896Z,607.00
2024-03-26T04:54:40.866Z,607.00
2024-03-26T04:55:40.864Z,606.00
2024-03-26T04:56:40.903Z,609.00
2024-03-26T04:57:40.875Z,610.00
2024-03-26T04:58:40.921Z,612.00
2024-03-26T04:59:40.878Z,618.00
2024-03-26T05:00:40.887Z,610.00
2024-03-26T05:01:40.879Z,616.00
2024-03-26T05:02:40.883Z,612.00
2024-03-26T05:03:40.888Z,616.00
2024-03-26T05:04:40.879Z,617.00
2024-03-26T05:05:40.914Z,614.00
2024-03-26T05:06:40.917Z,616.00
2024-03-26T05:07:40.895Z,617.00
2024-03-26T05:08:40.896Z,617.00
2024-03-26T05:09:41.000Z,616.00
2024-03-26T05:10:40.900Z,616.00
2024-03-26T05:11:40.906Z,613.00
2024-03-26T05:12:40.917Z,621.00
2024-03-26T05:13:40.895Z,611.00
2024-03-26T05:14:40.927Z,615.00
2024-03-26T05:15:40.899Z,620.00
2024-03-26T05:16:40.907Z,612.00
2024-03-26T05:17:40.886Z,616.00
2024-03-26T05:18:40.895Z,610.00
2024-03-26T05:19:40.904Z,608.00
2024-03-26T05:20:40.911Z,614.00
2024-03-26T05:21:40.903Z,611.00
2024-03-26T05:22:40.909Z,612.00
2024-03-26T05:23:40.886Z,610.00
2024-03-26T05:24:40.921Z,610.00
2024-03-26T05:25:40.900Z,610.00
2024-03-26T05:26:40.910Z,611.00
2024-03-26T05:27:40.925Z,608.00
2024-03-26T05:28:40.923Z,611.00
2024-03-26T05:29:40.898Z,611.00
2024-03-26T05:30:40.913Z,613.00
2024-03-26T05:31:40.942Z,614.00
2024-03-26T05:32:40.899Z,619.00
2024-03-26T05:33:40.930Z,614.00
2024-03-26T05:34:40.962Z,621.00
2024-03-26T05:35:40.968Z,617.00
2024-03-26T05:36:41.346Z,620.00
2024-03-26T05:37:41.014Z,626.00
2024-03-26T05:38:41.039Z,619.00
2024-03-26T05:39:41.112Z,625.00
2024-03-26T05:40:41.067Z,620.00
2024-03-26T05:41:41.141Z,618.00
2024-03-26T05:42:41.172Z,618.00
2024-03-26T05:43:41.178Z,616.00
2024-03-26T05:44:41.182Z,618.00
2024-03-26T05:45:41.211Z,620.00
2024-03-26T05:46:41.263Z,622.00
2024-03-26T05:47:41.263Z,621.00
2024-03-26T05:48:41.303Z,624.00
2024-03-26T05:49:41.316Z,630.00
2024-03-26T05:50:41.406Z,629.00
2024-03-26T05:51:41.917Z,632.00
2024-03-26T05:52:41.412Z,630.00
2024-03-26T05:53:41.453Z,633.00
2024-03-26T05:54:41.483Z,633.00
2024-03-26T05:55:41.508Z,640.00
2024-03-26T05:56:41.542Z,636.00
2024-03-26T05:57:41.581Z,637.00
2024-03-26T05:58:41.580Z,641.00
2024-03-26T05:59:41.603Z,640.00
2024-03-26T06:00:41.654Z,642.00
2024-03-26T06:01:41.669Z,642.00
2024-03-26T06:02:41.689Z,647.00
2024-03-26T06:03:41.715Z,641.00
2024-03-26T06:04:41.754Z,643.00
2024-03-26T06:05:41.770Z,645.00
2024-03-26T06:06:41.812Z,644.00
2024-03-26T06:07:41.824Z,645.00
2024-03-26T06:08:41.868Z,647.00
2024-03-26T06:09:41.880Z,645.00
2024-03-26T06:10:41.897Z,647.00
2024-03-26T06:11:41.951Z,649.00
2024-03-26T06:12:41.948Z,645.00
2024-03-26T06:13:41.960Z,644.00
2024-03-26T06:14:42.009Z,643.00
2024-03-26T06:15:42.016Z,643.00
2024-03-26T06:16:42.071Z,647.00
2024-03-26T06:17:42.082Z,648.00
2024-03-26T06:18:42.097Z,647.00
2024-03-26T06:19:42.154Z,647.00
2024-03-26T06:20:42.205Z,647.00
2024-03-26T06:21:42.212Z,651.00
2024-03-26T06:22:42.301Z,652.00
2024-03-26T06:23:42.265Z,652.00
2024-03-26T06:24:42.308Z,650.00
2024-03-26T06:25:42.354Z,650.00
2024-03-26T06:26:42.864Z,652.00
2024-03-26T06:27:42.356Z,654.00
2024-03-26T06:28:42.404Z,653.00
2024-03-26T06:29:42.409Z,653.00
2024-03-26T06:30:42.439Z,658.00
2024-03-26T06:31:42.494Z,657.00
2024-03-26T06:32:42.493Z,661.00
2024-03-26T06:33:42.560Z,652.00
2024-03-26T06:34:42.513Z,654.00
2024-03-26T06:35:42.559Z,659.00
2024-03-26T06:36:42.864Z,660.00
2024-03-26T06:37:42.630Z,658.00
2024-03-26T06:38:42.646Z,655.00
2024-03-26T06:39:42.647Z,657.00
2024-03-26T06:40:42.688Z,660.00
2024-03-26T06:41:42.719Z,661.00
2024-03-26T06:42:42.739Z,660.00
2024-03-26T06:43:42.761Z,658.00
2024-03-26T06:44:42.789Z,659.00
2024-03-26T06:45:42.788Z,655.00
2024-03-26T06:46:42.821Z,655.00
2024-03-26T06:47:42.868Z,658.00
2024-03-26T06:48:42.881Z,654.00
2024-03-26T06:49:42.877Z,656.00
2024-03-26T06:50:42.901Z,654.00
2024-03-26T06:51:43.135Z,650.00
2024-03-26T06:52:42.968Z,653.00
2024-03-26T06:53:42.998Z,652.00
2024-03-26T06:54:43.017Z,654.00
2024-03-26T06:55:43.075Z,655.00
2024-03-26T06:56:43.351Z,650.00
2024-03-26T06:57:43.092Z,651.00
2024-03-26T06:58:43.137Z,654.00
2024-03-26T06:59:43.156Z,654.00
2024-03-26T07:00:43.182Z,653.00
2024-03-26T07:01:43.208Z,658.00
2024-03-26T07:02:43.238Z,652.00
2024-03-26T07:03:43.266Z,655.00
2024-03-26T07:04:43.277Z,659.00
2024-03-26T07:05:43.307Z,654.00
2024-03-26T07:06:43.362Z,652.00
2024-03-26T07:07:43.358Z,653.00
2024-03-26T07:08:43.422Z,653.00
2024-03-26T07:09:43.410Z,653.00
2024-03-26T07:10:43.433Z,648.00
2024-03-26T07:11:43.445Z,653.00
2024-03-26T07:12:43.470Z,658.00
2024-03-26T07:13:43.474Z,660.00
2024-03-26T07:14:44.349Z,663.00
2024-03-26T07:15:43.536Z,656.00
2024-03-26T07:16:43.570Z,653.00
2024-03-26T07:17:43.578Z,654.00
2024-03-26T07:18:46.557Z,652.00
2024-03-26T07:19:43.605Z,646.00
2024-03-26T07:20:43.588Z,643.00
2024-03-26T07:21:43.621Z,638.00
2024-03-26T07:22:43.609Z,634.00
2024-03-26T07:23:43.593Z,630.00
2024-03-26T07:24:43.616Z,632.00
2024-03-26T07:25:43.626Z,626.00
2024-03-26T07:26:43.898Z,626.00
2024-03-26T07:27:43.602Z,631.00
2024-03-26T07:28:43.615Z,628.00
2024-03-26T07:29:43.613Z,628.00
2024-03-26T07:30:43.636Z,631.00
2024-03-26T07:31:43.617Z,629.00
2024-03-26T07:32:43.600Z,633.00
2024-03-26T07:33:43.620Z,625.00
2024-03-26T07:34:43.605Z,620.00
2024-03-26T07:35:43.624Z,625.00
2024-03-26T07:36:43.622Z,624.00
2024-03-26T07:37:43.614Z,620.00
2024-03-26T07:38:43.604Z,615.00
2024-03-26T07:39:43.657Z,610.00
2024-03-26T07:40:43.691Z,615.00
2024-03-26T07:41:43.626Z,617.00
2024-03-26T07:42:43.611Z,614.00
2024-03-26T07:43:43.636Z,607.00
2024-03-26T07:44:43.622Z,607.00
2024-03-26T07:45:43.647Z,601.00
2024-03-26T07:46:43.639Z,601.00
2024-03-26T07:47:43.696Z,601.00
2024-03-26T07:48:43.604Z,608.00
2024-03-26T07:49:43.668Z,604.00
2024-03-26T07:50:43.690Z,600.00
2024-03-26T07:51:43.656Z,604.00
2024-03-26T07:52:43.614Z,606.00
2024-03-26T07:53:43.622Z,603.00
2024-03-26T07:54:43.629Z,601.00
2024-03-26T07:55:43.652Z,604.00
2024-03-26T07:56:43.663Z,600.00
2024-03-26T07:57:43.630Z,601.00
2024-03-26T07:58:43.647Z,601.00
2024-03-26T07:59:43.761Z,600.00
2024-03-26T08:00:43.643Z,601.00
2024-03-26T08:01:43.649Z,603.00
2024-03-26T08:02:43.633Z,601.00
2024-03-26T08:03:43.639Z,602.00
2024-03-26T08:04:43.645Z,602.00
2024-03-26T08:05:43.654Z,603.00
2024-03-26T08:06:43.682Z,604.00
2024-03-26T08:07:43.643Z,600.00
2024-03-26T08:08:43.657Z,605.00
2024-03-26T08:09:43.721Z,600.00
2024-03-26T08:10:44.505Z,606.00
2024-03-26T08:11:43.900Z,607.00
2024-03-26T08:12:43.662Z,607.00
2024-03-26T08:13:43.660Z,600.00
2024-03-26T08:14:43.651Z,608.00
2024-03-26T08:15:43.672Z,600.00
2024-03-26T08:16:43.734Z,603.00
2024-03-26T08:17:43.685Z,609.00
2024-03-26T08:18:43.652Z,607.00
2024-03-26T08:19:43.661Z,609.00
2024-03-26T08:20:43.673Z,604.00
2024-03-26T08:21:43.665Z,603.00
2024-03-26T08:22:43.653Z,608.00
2024-03-26T08:23:43.675Z,605.00
2024-03-26T08:24:43.684Z,602.00
2024-03-26T08:25:43.669Z,604.00
2024-03-26T08:26:43.670Z,604.00
2024-03-26T08:27:43.673Z,602.00
2024-03-26T08:28:43.717Z,600.00
2024-03-26T08:29:43.667Z,609.00
2024-03-26T08:30:43.743Z,603.00
2024-03-26T08:31:43.917Z,604.00
2024-03-26T08:32:43.814Z,602.00
2024-03-26T08:33:43.678Z,605.00
2024-03-26T08:34:43.702Z,606.00
2024-03-26T08:35:43.749Z,604.00
2024-03-26T08:36:43.880Z,601.00
2024-03-26T08:37:43.719Z,600.00
2024-03-26T08:38:43.719Z,608.00
2024-03-26T08:39:43.708Z,610.00
2024-03-26T08:40:43.698Z,604.00
2024-03-26T08:41:43.719Z,604.00
2024-03-26T08:42:43.718Z,600.00
2024-03-26T08:43:43.731Z,608.00
2024-03-26T08:44:43.701Z,601.00
2024-03-26T08:45:43.704Z,604.00
2024-03-26T08:46:43.899Z,604.00
2024-03-26T08:47:43.717Z,609.00
2024-03-26T08:48:43.714Z,610.00
2024-03-26T08:49:43.709Z,608.00
2024-03-26T08:50:43.717Z,610.00
2024-03-26T08:51:43.733Z,604.00
2024-03-26T08:52:43.924Z,605.00
2024-03-26T08:53:43.733Z,607.00
2024-03-26T08:54:43.731Z,605.00
2024-03-26T08:55:43.756Z,605.00
2024-03-26T08:56:43.791Z,607.00
2024-03-26T08:57:43.786Z,600.00
2024-03-26T08:58:43.797Z,600.00
2024-03-26T08:59:43.833Z,601.00
2024-03-26T09:00:43.952Z,604.00
2024-03-26T09:01:44.587Z,602.00
2024-03-26T09:02:44.415Z,600.00
2024-03-26T09:03:43.927Z,602.00
2024-03-26T09:04:43.943Z,607.00
2024-03-26T09:05:43.976Z,608.00
2024-03-26T09:06:43.982Z,609.00
2024-03-26T09:07:44.423Z,605.00
2024-03-26T09:08:44.035Z,606.00
2024-03-26T09:09:44.036Z,603.00
2024-03-26T09:10:44.092Z,600.00
2024-03-26T09:11:44.094Z,604.00
2024-03-26T09:12:44.430Z,602.00
2024-03-26T09:13:44.186Z,606.00
2024-03-26T09:14:44.186Z,607.00
2024-03-26T09:15:44.228Z,607.00
2024-03-26T09:16:44.234Z,612.00
2024-03-26T09:17:44.261Z,601.00
2024-03-26T09:18:44.470Z,600.00
2024-03-26T09:19:44.336Z,604.00
2024-03-26T09:20:44.369Z,607.00
2024-03-26T09:21:44.390Z,606.00
2024-03-26T09:22:44.406Z,609.00
2024-03-26T09:23:44.408Z,612.00
2024-03-26T09:24:50.498Z,614.00
2024-03-26T09:25:45.444Z,614.00
2024-03-26T09:26:44.432Z,612.00
2024-03-26T09:27:44.428Z,611.00
2024-03-26T09:28:44.456Z,614.00
2024-03-26T09:29:44.457Z,616.00
2024-03-26T09:30:44.460Z,619.00
2024-03-26T09:31:44.541Z,616.00
2024-03-26T09:32:44.922Z,616.00
2024-03-26T09:33:44.459Z,621.00
2024-03-26T09:34:44.464Z,621.00
2024-03-26T09:35:45.397Z,620.00
2024-03-26T09:36:44.451Z,627.00
2024-03-26T09:37:44.443Z,627.00
2024-03-26T09:38:48.666Z,624.00
2024-03-26T09:39:46.423Z,622.00
2024-03-26T09:40:44.453Z,624.00
2024-03-26T09:41:44.463Z,618.00
2024-03-26T09:42:44.565Z,618.00
2024-03-26T09:43:44.485Z,613.00
2024-03-26T09:44:49.745Z,615.00
2024-03-26T09:45:45.478Z,612.00
2024-03-26T09:46:44.459Z,611.00
2024-03-26T09:47:44.489Z,601.00
2024-03-26T09:48:44.474Z,604.00
2024-03-26T09:49:44.482Z,596.00
2024-03-26T09:50:44.463Z,602.00
2024-03-26T09:51:44.466Z,604.00
2024-03-26T09:52:44.533Z,605.00
2024-03-26T09:53:44.514Z,602.00
2024-03-26T09:54:44.468Z,604.00
2024-03-26T09:55:44.484Z,600.00
2024-03-26T09:56:44.479Z,604.00
2024-03-26T09:57:44.473Z,605.00
2024-03-26T09:58:44.488Z,601.00
2024-03-26T09:59:44.506Z,601.00
2024-03-26T10:00:44.510Z,606.00
2024-03-26T10:01:44.498Z,608.00
2024-03-26T10:02:44.513Z,607.00
2024-03-26T10:03:44.476Z,608.00
2024-03-26T10:04:44.485Z,615.00
2024-03-26T10:05:44.502Z,619.00
2024-03-26T10:06:44.465Z,618.00
2024-03-26T10:07:44.506Z,614.00
2024-03-26T10:08:44.512Z,621.00
2024-03-26T10:09:44.492Z,617.00
2024-03-26T10:10:44.486Z,614.00
2024-03-26T10:11:44.500Z,617.00
2024-03-26T10:12:44.534Z,616.00
2024-03-26T10:13:44.550Z,621.00
2024-03-26T10:14:44.567Z,610.00
2024-03-26T10:15:44.567Z,611.00
2024-03-26T10:16:44.606Z,611.00
2024-03-26T10:17:44.673Z,610.00
2024-03-26T10:18:44.649Z,616.00
2024-03-26T10:19:44.653Z,620.00
2024-03-26T10:20:44.660Z,624.00
2024-03-26T10:21:44.704Z,624.00
2024-03-26T10:22:44.949Z,629.00
2024-03-26T10:23:44.753Z,628.00
2024-03-26T10:24:44.770Z,626.00
2024-03-26T10:25:44.774Z,612.00
2024-03-26T10:26:44.787Z,606.00
2024-03-26T10:27:44.832Z,608.00
2024-03-26T10:28:44.862Z,609.00
2024-03-26T10:29:44.868Z,609.00
2024-03-26T10:30:44.895Z,608.00
2024-03-26T10:31:44.914Z,606.00
2024-03-26T10:32:44.991Z,617.00
2024-03-26T10:33:44.966Z,611.00
2024-03-26T10:34:45.001Z,607.00
2024-03-26T10:35:45.027Z,613.00
2024-03-26T10:36:45.022Z,608.00
2024-03-26T10:37:45.068Z,600.00
2024-03-26T10:38:54.093Z,609.00
2024-03-26T10:39:46.099Z,608.00
2024-03-26T10:40:45.088Z,609.00
2024-03-26T10:41:45.095Z,612.00
2024-03-26T10:42:45.477Z,611.00
2024-03-26T10:43:45.111Z,615.00
2024-03-26T10:44:45.082Z,616.00
2024-03-26T10:45:59.932Z,606.00
2024-03-26T10:46:46.117Z,606.00
2024-03-26T10:47:45.133Z,607.00
2024-03-26T10:48:54.249Z,609.00
2024-03-26T10:49:46.133Z,606.00
2024-03-26T10:50:45.126Z,608.00
2024-03-26T10:51:45.118Z,609.00
2024-03-26T10:52:45.632Z,612.00
2024-03-26T10:53:45.141Z,620.00
2024-03-26T10:54:45.143Z,625.00
2024-03-26T10:55:45.134Z,622.00
2024-03-26T10:56:45.162Z,627.00
2024-03-26T10:57:45.170Z,620.00
2024-03-26T10:58:45.140Z,617.00
2024-03-26T10:59:45.140Z,618.00
2024-03-26T11:00:45.215Z,610.00
2024-03-26T11:01:45.140Z,611.00
2024-03-26T11:02:45.144Z,611.00
2024-03-26T11:03:45.161Z,614.00
2024-03-26T11:04:45.156Z,614.00
2024-03-26T11:05:45.168Z,604.00
2024-03-26T11:06:45.187Z,607.00
2024-03-26T11:07:45.144Z,609.00
2024-03-26T11:08:45.145Z,605.00
2024-03-26T11:09:45.155Z,603.00
2024-03-26T11:10:45.183Z,609.00
2024-03-26T11:11:45.172Z,606.00
2024-03-26T11:12:45.170Z,606.00
2024-03-26T11:13:45.175Z,606.00
2024-03-26T11:14:45.182Z,600.00
2024-03-26T11:15:45.218Z,606.00
2024-03-26T11:16:45.203Z,610.00
2024-03-26T11:17:45.236Z,610.00
2024-03-26T11:18:45.236Z,612.00
2024-03-26T11:19:45.260Z,615.00
2024-03-26T11:20:45.337Z,621.00
2024-03-26T11:21:46.978Z,628.00
2024-03-26T11:22:45.357Z,621.00
2024-03-26T11:23:45.390Z,615.00
2024-03-26T11:24:45.414Z,619.00
2024-03-26T11:25:45.437Z,616.00
2024-03-26T11:26:45.436Z,613.00
2024-03-26T11:27:45.490Z,624.00
2024-03-26T11:28:45.483Z,613.00
2024-03-26T11:29:45.507Z,623.00
2024-03-26T11:30:45.540Z,617.00
2024-03-26T11:31:45.540Z,610.00
2024-03-26T11:32:45.596Z,610.00
2024-03-26T11:33:45.632Z,605.00
2024-03-26T11:34:45.643Z,599.00
2024-03-26T11:35:45.636Z,601.00
2024-03-26T11:36:45.683Z,608.00
2024-03-26T11:37:45.734Z,612.00
2024-03-26T11:38:45.734Z,610.00
2024-03-26T11:39:45.744Z,609.00
2024-03-26T11:40:45.775Z,610.00
2024-03-26T11:41:45.810Z,610.00
2024-03-26T11:42:45.837Z,607.00
2024-03-26T11:43:45.831Z,599.00
2024-03-26T11:44:45.882Z,606.00
2024-03-26T11:45:45.875Z,605.00
2024-03-26T11:46:45.902Z,615.00
2024-03-26T11:47:45.933Z,612.00
2024-03-26T11:48:45.981Z,616.00
2024-03-26T11:49:45.999Z,607.00
2024-03-26T11:50:46.023Z,609.00
2024-03-26T11:51:46.089Z,608.00
2024-03-26T11:52:46.092Z,612.00
2024-03-26T11:53:46.113Z,614.00
2024-03-26T11:54:46.142Z,621.00
2024-03-26T11:55:46.198Z,621.00
2024-03-26T11:56:46.236Z,629.00
2024-03-26T11:57:46.509Z,622.00
2024-03-26T11:58:46.277Z,618.00
2024-03-26T11:59:46.320Z,613.00
2024-03-26T12:00:46.341Z,602.00
2024-03-26T12:01:46.375Z,609.00
2024-03-26T12:02:46.386Z,615.00
2024-03-26T12:03:46.418Z,605.00
2024-03-26T12:04:46.411Z,605.00
2024-03-26T12:05:46.468Z,604.00
2024-03-26T12:06:46.533Z,614.00
2024-03-26T12:07:47.006Z,614.00
2024-03-26T12:08:46.557Z,620.00
2024-03-26T12:09:46.552Z,615.00
2024-03-26T12:10:46.602Z,615.00
2024-03-26T12:11:46.606Z,612.00
2024-03-26T12:12:46.659Z,608.00
2024-03-26T12:13:46.721Z,611.00
2024-03-26T12:14:46.728Z,608.00
2024-03-26T12:15:46.738Z,614.00
2024-03-26T12:16:46.748Z,617.00
2024-03-26T12:17:46.794Z,603.00
2024-03-26T12:18:46.800Z,611.00
2024-03-26T12:19:46.815Z,613.00
2024-03-26T12:20:46.875Z,616.00
2024-03-26T12:21:46.840Z,618.00
2024-03-26T12:22:47.015Z,628.00
2024-03-26T12:23:46.907Z,623.00
2024-03-26T12:24:46.968Z,627.00
2024-03-26T12:25:46.946Z,625.00
2024-03-26T12:26:46.991Z,613.00
2024-03-26T12:27:47.000Z,620.00
2024-03-26T12:28:47.008Z,620.00